createdAt,value
2022-08-22T00:00:23.808Z,0.00
2022-08-22T00:01:23.898Z,0.00
2022-08-22T00:02:23.716Z,0.00
2022-08-22T00:02:46.132Z,0.00
2022-08-22T00:03:08.633Z,0.00
2022-08-22T00:03:12.645Z,0.00
2022-08-22T00:03:23.630Z,0.00
2022-08-22T00:04:23.545Z,0.00
2022-08-22T00:05:23.466Z,0.00
2022-08-22T00:06:23.417Z,0.00
2022-08-22T00:07:23.336Z,0.00
2022-08-22T00:08:24.346Z,0.00
2022-08-22T00:09:23.208Z,0.00
2022-08-22T00:10:25.519Z,0.00
2022-08-22T00:11:23.099Z,0.00
2022-08-22T00:12:23.045Z,0.00
2022-08-22T00:13:22.978Z,0.00
2022-08-22T00:14:23.674Z,0.00
2022-08-22T00:15:42.464Z,0.00
2022-08-22T00:16:22.777Z,0.00
2022-08-22T00:17:22.708Z,0.00
2022-08-22T00:18:22.634Z,0.00
2022-08-22T00:19:22.609Z,0.00
2022-08-22T00:20:28.099Z,0.00
2022-08-22T00:21:22.446Z,0.00
2022-08-22T00:22:22.388Z,0.00
2022-08-22T00:23:22.323Z,0.00
2022-08-22T00:24:22.289Z,0.00
2022-08-22T00:25:25.721Z,0.00
2022-08-22T00:26:23.668Z,0.00
2022-08-22T00:27:22.059Z,0.00
2022-08-22T00:28:22.002Z,0.00
2022-08-22T00:29:21.928Z,0.00
2022-08-22T00:30:21.868Z,0.00
2022-08-22T00:31:21.809Z,0.00
2022-08-22T00:32:21.762Z,0.00
2022-08-22T00:33:21.671Z,0.00
2022-08-22T00:34:21.607Z,0.00
2022-08-22T00:35:21.578Z,0.00
2022-08-22T00:36:21.499Z,0.00
2022-08-22T00:37:21.408Z,0.00
2022-08-22T00:38:21.367Z,0.00
2022-08-22T00:39:21.317Z,0.00
2022-08-22T00:40:21.294Z,0.00
2022-08-22T00:41:21.151Z,0.00
2022-08-22T00:42:29.086Z,0.00
2022-08-22T00:43:21.037Z,0.00
2022-08-22T00:44:22.517Z,0.00
2022-08-22T00:45:20.919Z,0.00
2022-08-22T00:46:20.831Z,0.00
2022-08-22T00:47:20.770Z,0.00
2022-08-22T00:48:20.705Z,0.00
2022-08-22T00:49:20.657Z,0.00
2022-08-22T00:50:21.363Z,0.00
2022-08-22T00:51:20.507Z,0.00
2022-08-22T00:52:20.450Z,0.00
2022-08-22T00:53:20.385Z,0.00
2022-08-22T00:54:20.347Z,0.00
2022-08-22T00:55:20.256Z,0.00
2022-08-22T00:56:20.251Z,0.00
2022-08-22T00:57:20.130Z,0.00
2022-08-22T00:58:20.057Z,0.00
2022-08-22T00:59:23.121Z,0.00
2022-08-22T01:00:19.951Z,0.00
2022-08-22T01:01:19.909Z,0.00
2022-08-22T01:02:20.574Z,0.00
2022-08-22T01:03:19.745Z,0.00
2022-08-22T01:04:19.687Z,0.00
2022-08-22T01:05:19.645Z,0.00
2022-08-22T01:06:19.544Z,0.00
2022-08-22T01:07:19.491Z,0.00
2022-08-22T01:08:19.443Z,0.00
2022-08-22T01:09:19.369Z,0.00
2022-08-22T01:10:19.284Z,0.00
2022-08-22T01:11:19.223Z,0.00
2022-08-22T01:12:19.169Z,0.00
2022-08-22T01:13:19.109Z,0.00
2022-08-22T01:14:20.271Z,0.00
2022-08-22T01:15:18.991Z,0.00
2022-08-22T01:16:18.915Z,0.00
2022-08-22T01:17:18.835Z,0.00
2022-08-22T01:18:18.789Z,0.00
2022-08-22T01:19:18.711Z,0.00
2022-08-22T01:20:19.455Z,0.00
2022-08-22T01:21:20.724Z,0.00
2022-08-22T01:22:18.525Z,0.00
2022-08-22T01:23:18.451Z,0.00
2022-08-22T01:24:18.397Z,0.00
2022-08-22T01:25:18.371Z,0.00
2022-08-22T01:26:19.822Z,0.00
2022-08-22T01:27:18.191Z,0.00
2022-08-22T01:28:18.131Z,0.00
2022-08-22T01:29:18.077Z,0.00
2022-08-22T01:30:18.028Z,0.00
2022-08-22T01:31:17.952Z,0.00
2022-08-22T01:32:18.661Z,0.00
2022-08-22T01:33:17.822Z,0.00
2022-08-22T01:34:17.761Z,0.00
2022-08-22T01:35:17.694Z,0.00
2022-08-22T01:36:17.627Z,0.00
2022-08-22T01:37:17.513Z,1.00
2022-08-22T01:38:17.492Z,0.00
2022-08-22T01:39:17.457Z,0.00
2022-08-22T01:40:17.390Z,0.00
2022-08-22T01:41:17.306Z,0.00
2022-08-22T01:42:17.226Z,0.00
2022-08-22T01:43:17.173Z,0.00
2022-08-22T01:44:17.113Z,0.00
2022-08-22T01:45:17.063Z,0.00
2022-08-22T01:46:20.634Z,0.00
2022-08-22T01:47:16.920Z,0.00
2022-08-22T01:48:16.858Z,0.00
2022-08-22T01:49:16.790Z,0.00
2022-08-22T01:50:17.517Z,0.00
2022-08-22T01:51:16.650Z,0.00
2022-08-22T01:52:19.513Z,0.00
2022-08-22T01:53:16.518Z,0.00
2022-08-22T01:54:16.465Z,0.00
2022-08-22T01:55:16.410Z,0.00
2022-08-22T01:56:16.333Z,0.00
2022-08-22T01:57:16.292Z,0.00
2022-08-22T01:58:16.206Z,0.00
2022-08-22T01:59:16.150Z,0.00
2022-08-22T02:00:16.062Z,0.00
2022-08-22T02:01:16.026Z,0.00
2022-08-22T02:02:17.170Z,0.00
2022-08-22T02:03:15.886Z,0.00
2022-08-22T02:04:15.822Z,0.00
2022-08-22T02:05:15.695Z,1.00
2022-08-22T02:06:15.698Z,0.00
2022-08-22T02:07:15.629Z,0.00
2022-08-22T02:08:15.577Z,0.00
2022-08-22T02:09:15.491Z,0.00
2022-08-22T02:10:15.421Z,0.00
2022-08-22T02:11:15.369Z,0.00
2022-08-22T02:12:21.945Z,0.00
2022-08-22T02:13:16.104Z,0.00
2022-08-22T02:14:15.191Z,0.00
2022-08-22T02:15:15.102Z,0.00
2022-08-22T02:16:15.038Z,0.00
2022-08-22T02:17:14.965Z,0.00
2022-08-22T02:18:14.905Z,0.00
2022-08-22T02:19:14.838Z,0.00
2022-08-22T02:20:17.086Z,0.00
2022-08-22T02:21:14.710Z,0.00
2022-08-22T02:22:14.649Z,0.00
2022-08-22T02:23:14.583Z,0.00
2022-08-22T02:24:14.530Z,0.00
2022-08-22T02:25:14.452Z,0.00
2022-08-22T02:26:14.434Z,0.00
2022-08-22T02:27:14.336Z,0.00
2022-08-22T02:28:14.259Z,0.00
2022-08-22T02:29:14.196Z,0.00
2022-08-22T02:30:14.133Z,0.00
2022-08-22T02:31:14.795Z,0.00
2022-08-22T02:32:14.031Z,0.00
2022-08-22T02:33:13.948Z,0.00
2022-08-22T02:34:13.887Z,0.00
2022-08-22T02:35:13.810Z,0.00
2022-08-22T02:36:13.738Z,0.00
2022-08-22T02:37:13.673Z,0.00
2022-08-22T02:38:14.414Z,0.00
2022-08-22T02:39:13.548Z,0.00
2022-08-22T02:40:13.561Z,0.00
2022-08-22T02:41:13.427Z,0.00
2022-08-22T02:42:13.353Z,0.00
2022-08-22T02:43:13.300Z,0.00
2022-08-22T02:44:14.448Z,0.00
2022-08-22T02:45:13.160Z,0.00
2022-08-22T02:46:13.105Z,0.00
2022-08-22T02:47:13.028Z,0.00
2022-08-22T02:48:12.984Z,0.00
2022-08-22T02:49:12.912Z,0.00
2022-08-22T02:50:13.222Z,0.00
2022-08-22T02:51:12.780Z,0.00
2022-08-22T02:52:12.710Z,0.00
2022-08-22T02:53:12.658Z,0.00
2022-08-22T02:54:12.596Z,0.00
2022-08-22T02:55:12.530Z,0.00
2022-08-22T02:56:12.480Z,0.00
2022-08-22T02:57:14.413Z,0.00
2022-08-22T02:58:12.330Z,0.00
2022-08-22T02:59:12.251Z,0.00
2022-08-22T03:00:31.819Z,0.00
2022-08-22T03:01:12.239Z,0.00
2022-08-22T03:02:13.290Z,0.00
2022-08-22T03:03:12.019Z,0.00
2022-08-22T03:04:11.949Z,0.00
2022-08-22T03:05:11.867Z,0.00
2022-08-22T03:06:11.817Z,0.00
2022-08-22T03:07:11.763Z,0.00
2022-08-22T03:08:12.879Z,0.00
2022-08-22T03:09:11.613Z,0.00
2022-08-22T03:10:11.556Z,0.00
2022-08-22T03:11:11.507Z,0.00
2022-08-22T03:12:11.427Z,0.00
2022-08-22T03:13:11.359Z,0.00
2022-08-22T03:14:11.322Z,0.00
2022-08-22T03:15:11.232Z,0.00
2022-08-22T03:16:11.167Z,0.00
2022-08-22T03:17:11.095Z,0.00
2022-08-22T03:18:11.041Z,0.00
2022-08-22T03:19:18.900Z,0.00
2022-08-22T03:20:10.930Z,0.00
2022-08-22T03:21:10.837Z,0.00
2022-08-22T03:22:10.789Z,0.00
2022-08-22T03:23:10.706Z,0.00
2022-08-22T03:24:10.643Z,0.00
2022-08-22T03:25:10.593Z,0.00
2022-08-22T03:26:10.862Z,0.00
2022-08-22T03:27:10.442Z,0.00
2022-08-22T03:28:10.379Z,0.00
2022-08-22T03:29:10.330Z,0.00
2022-08-22T03:30:10.267Z,0.00
2022-08-22T03:31:10.203Z,0.00
2022-08-22T03:32:10.144Z,0.00
2022-08-22T03:33:10.060Z,0.00
2022-08-22T03:34:10.011Z,0.00
2022-08-22T03:35:09.945Z,0.00
2022-08-22T03:36:09.860Z,0.00
2022-08-22T03:37:09.795Z,0.00
2022-08-22T03:38:09.755Z,0.00
2022-08-22T03:39:17.285Z,0.00
2022-08-22T03:40:09.664Z,0.00
2022-08-22T03:41:09.554Z,0.00
2022-08-22T03:42:09.500Z,0.00
2022-08-22T03:43:09.430Z,0.00
2022-08-22T03:44:10.120Z,0.00
2022-08-22T03:45:09.298Z,0.00
2022-08-22T03:46:09.223Z,0.00
2022-08-22T03:47:09.162Z,0.00
2022-08-22T03:48:09.103Z,0.00
2022-08-22T03:49:09.036Z,0.00
2022-08-22T03:50:08.929Z,1.00
2022-08-22T03:51:08.868Z,1.00
2022-08-22T03:52:08.785Z,1.00
2022-08-22T03:53:15.328Z,1.00
2022-08-22T03:54:08.662Z,1.00
2022-08-22T03:55:08.590Z,2.00
2022-08-22T03:56:08.533Z,2.00
2022-08-22T03:57:08.450Z,2.00
2022-08-22T03:58:13.650Z,3.00
2022-08-22T03:59:09.927Z,3.00
2022-08-22T04:00:08.269Z,4.00
2022-08-22T04:01:08.369Z,3.00
2022-08-22T04:02:42.262Z,7.00
2022-08-22T04:03:08.092Z,6.00
2022-08-22T04:04:08.016Z,9.00
2022-08-22T04:05:07.949Z,11.00
2022-08-22T04:06:12.818Z,11.00
2022-08-22T04:07:28.015Z,9.00
2022-08-22T04:08:09.503Z,14.00
2022-08-22T04:09:07.675Z,16.00
2022-08-22T04:10:07.624Z,16.00
2022-08-22T04:11:07.552Z,18.00
2022-08-22T04:12:07.502Z,23.00
2022-08-22T04:13:07.419Z,28.00
2022-08-22T04:14:08.146Z,27.00
2022-08-22T04:15:07.320Z,31.00
2022-08-22T04:16:07.234Z,37.00
2022-08-22T04:17:07.158Z,42.00
2022-08-22T04:18:07.095Z,44.00
2022-08-22T04:19:08.042Z,49.00
2022-08-22T04:20:06.992Z,51.00
2022-08-22T04:21:06.922Z,57.00
2022-08-22T04:22:06.831Z,61.00
2022-08-22T04:23:06.782Z,66.00
2022-08-22T04:24:06.718Z,69.00
2022-08-22T04:25:08.214Z,75.00
2022-08-22T04:26:10.809Z,84.00
2022-08-22T04:27:06.529Z,85.00
2022-08-22T04:28:06.461Z,91.00
2022-08-22T04:29:06.384Z,100.00
2022-08-22T04:30:06.331Z,106.00
2022-08-22T04:31:06.260Z,116.00
2022-08-22T04:32:06.231Z,126.00
2022-08-22T04:33:06.121Z,136.00
2022-08-22T04:34:06.070Z,145.00
2022-08-22T04:35:06.001Z,156.00
2022-08-22T04:36:05.936Z,171.00
2022-08-22T04:37:05.874Z,175.00
2022-08-22T04:38:09.146Z,185.00
2022-08-22T04:39:05.734Z,197.00
2022-08-22T04:40:05.737Z,214.00
2022-08-22T04:41:05.624Z,226.00
2022-08-22T04:42:29.187Z,234.00
2022-08-22T04:43:05.497Z,243.00
2022-08-22T04:44:05.426Z,262.00
2022-08-22T04:45:05.367Z,269.00
2022-08-22T04:46:05.279Z,282.00
2022-08-22T04:47:05.228Z,295.00
2022-08-22T04:48:05.186Z,306.00
2022-08-22T04:49:05.099Z,316.00
2022-08-22T04:50:05.812Z,328.00
2022-08-22T04:51:04.960Z,341.00
2022-08-22T04:52:04.895Z,358.00
2022-08-22T04:53:04.825Z,367.00
2022-08-22T04:54:04.776Z,381.00
2022-08-22T04:55:04.695Z,396.00
2022-08-22T04:56:07.693Z,408.00
2022-08-22T04:57:04.579Z,417.00
2022-08-22T04:58:06.457Z,430.00
2022-08-22T04:59:04.443Z,443.00
2022-08-22T05:00:04.395Z,455.00
2022-08-22T05:01:04.325Z,467.00
2022-08-22T05:02:05.058Z,478.00
2022-08-22T05:03:04.190Z,495.00
2022-08-22T05:04:04.117Z,506.00
2022-08-22T05:05:04.065Z,517.00
2022-08-22T05:06:03.994Z,529.00
2022-08-22T05:07:03.928Z,544.00
2022-08-22T05:08:03.869Z,555.00
2022-08-22T05:09:03.790Z,569.00
2022-08-22T05:10:09.373Z,581.00
2022-08-22T05:11:03.677Z,593.00
2022-08-22T05:12:03.603Z,606.00
2022-08-22T05:13:03.524Z,620.00
2022-08-22T05:14:05.013Z,629.00
2022-08-22T05:15:03.402Z,645.00
2022-08-22T05:16:03.352Z,654.00
2022-08-22T05:17:03.289Z,666.00
2022-08-22T05:18:03.207Z,680.00
2022-08-22T05:19:03.159Z,691.00
2022-08-22T05:20:03.093Z,707.00
2022-08-22T05:21:03.022Z,725.00
2022-08-22T05:22:02.966Z,741.00
2022-08-22T05:23:02.897Z,760.00
2022-08-22T05:24:02.813Z,776.00
2022-08-22T05:25:02.757Z,797.00
2022-08-22T05:26:02.704Z,818.00
2022-08-22T05:27:02.636Z,840.00
2022-08-22T05:28:02.553Z,860.00
2022-08-22T05:29:02.491Z,885.00
2022-08-22T05:30:03.154Z,903.00
2022-08-22T05:31:02.374Z,929.00
2022-08-22T05:32:02.326Z,955.00
2022-08-22T05:33:02.265Z,978.00
2022-08-22T05:34:02.171Z,1001.00
2022-08-22T05:35:02.116Z,1030.00
2022-08-22T05:36:02.051Z,1066.00
2022-08-22T05:37:02.017Z,1107.00
2022-08-22T05:38:04.596Z,1151.00
2022-08-22T05:39:01.838Z,1208.00
2022-08-22T05:40:01.850Z,1257.00
2022-08-22T05:41:01.719Z,1296.00
2022-08-22T05:42:01.663Z,1344.00
2022-08-22T05:43:01.593Z,1411.00
2022-08-22T05:44:01.540Z,1506.00
2022-08-22T05:45:01.477Z,1629.00
2022-08-22T05:46:01.392Z,1791.00
2022-08-22T05:47:01.332Z,1920.00
2022-08-22T05:48:01.283Z,2096.00
2022-08-22T05:49:01.214Z,2300.00
2022-08-22T05:50:01.154Z,2464.00
2022-08-22T05:51:01.196Z,2562.00
2022-08-22T05:52:01.023Z,2638.00
2022-08-22T05:53:00.943Z,2553.00
2022-08-22T05:54:00.895Z,2213.00
2022-08-22T05:55:00.812Z,2742.00
2022-08-22T05:56:01.955Z,3885.00
2022-08-22T05:57:03.088Z,5108.00
2022-08-22T05:58:00.626Z,5631.00
2022-08-22T05:59:00.551Z,5656.00
2022-08-22T06:00:00.498Z,4628.00
2022-08-22T06:01:00.418Z,4169.00
2022-08-22T06:02:00.473Z,4696.00
2022-08-22T06:03:00.319Z,6701.00
2022-08-22T06:04:00.230Z,5920.00
2022-08-22T06:05:00.213Z,4605.00
2022-08-22T06:06:00.098Z,4378.00
2022-08-22T06:07:00.053Z,4367.00
2022-08-22T06:08:00.137Z,4350.00
2022-08-22T06:08:59.944Z,4333.00
2022-08-22T06:09:59.856Z,4330.00
2022-08-22T06:10:59.799Z,4367.00
2022-08-22T06:11:59.712Z,4410.00
2022-08-22T06:12:59.645Z,4469.00
2022-08-22T06:14:02.002Z,4531.00
2022-08-22T06:14:59.523Z,4531.00
2022-08-22T06:15:59.477Z,4569.00
2022-08-22T06:16:59.410Z,4615.00
2022-08-22T06:17:59.615Z,4582.00
2022-08-22T06:18:59.276Z,4646.00
2022-08-22T06:19:59.220Z,4683.00
2022-08-22T06:20:59.135Z,4754.00
2022-08-22T06:21:59.075Z,4851.00
2022-08-22T06:22:59.027Z,4890.00
2022-08-22T06:23:58.942Z,4927.00
2022-08-22T06:24:58.890Z,4949.00
2022-08-22T06:25:58.833Z,4921.00
2022-08-22T06:26:58.757Z,4960.00
2022-08-22T06:27:58.878Z,4936.00
2022-08-22T06:28:58.665Z,5028.00
2022-08-22T06:29:58.562Z,5085.00
2022-08-22T06:30:58.508Z,5066.00
2022-08-22T06:32:00.864Z,5057.00
2022-08-22T06:33:00.946Z,5060.00
2022-08-22T06:33:58.330Z,5193.00
2022-08-22T06:34:58.245Z,5184.00
2022-08-22T06:35:58.183Z,5108.00
2022-08-22T06:36:58.138Z,5031.00
2022-08-22T06:37:58.188Z,5239.00
2022-08-22T06:38:57.990Z,5383.00
2022-08-22T06:39:57.998Z,5370.00
2022-08-22T06:40:57.892Z,5309.00
2022-08-22T06:41:57.806Z,5317.00
2022-08-22T06:42:57.750Z,5396.00
2022-08-22T06:43:57.715Z,5456.00
2022-08-22T06:44:57.624Z,5481.00
2022-08-22T06:45:57.547Z,5510.00
2022-08-22T06:46:57.501Z,5382.00
2022-08-22T06:48:00.571Z,5481.00
2022-08-22T06:48:57.375Z,5573.00
2022-08-22T06:49:57.318Z,5797.00
2022-08-22T06:50:57.244Z,5814.00
2022-08-22T06:51:57.186Z,5946.00
2022-08-22T06:52:57.102Z,5983.00
2022-08-22T06:53:57.085Z,6044.00
2022-08-22T06:54:57.029Z,6180.00
2022-08-22T06:55:56.947Z,6234.00
2022-08-22T06:56:56.850Z,6420.00
2022-08-22T06:57:56.839Z,6348.00
2022-08-22T06:58:56.764Z,6382.00
2022-08-22T06:59:56.707Z,6523.00
2022-08-22T07:01:05.205Z,6485.00
2022-08-22T07:01:58.923Z,6561.00
2022-08-22T07:02:56.496Z,6632.00
2022-08-22T07:03:56.459Z,6632.00
2022-08-22T07:04:56.419Z,6544.00
2022-08-22T07:05:56.323Z,6531.00
2022-08-22T07:06:56.265Z,6506.00
2022-08-22T07:07:56.228Z,6459.00
2022-08-22T07:08:56.118Z,6298.00
2022-08-22T07:09:56.051Z,6431.00
2022-08-22T07:10:56.016Z,6579.00
2022-08-22T07:11:55.957Z,6576.00
2022-08-22T07:12:55.872Z,6564.00
2022-08-22T07:13:55.847Z,6482.00
2022-08-22T07:14:55.734Z,6986.00
2022-08-22T07:15:56.317Z,6693.00
2022-08-22T07:16:55.608Z,6650.00
2022-08-22T07:17:55.578Z,6689.00
2022-08-22T07:18:55.517Z,6614.00
2022-08-22T07:19:56.628Z,6561.00
2022-08-22T07:20:55.410Z,6628.00
2022-08-22T07:21:55.327Z,6707.00
2022-08-22T07:22:55.233Z,6768.00
2022-08-22T07:23:55.167Z,6750.00
2022-08-22T07:24:55.119Z,6769.00
2022-08-22T07:25:55.058Z,6784.00
2022-08-22T07:26:55.001Z,6679.00
2022-08-22T07:27:55.074Z,6744.00
2022-08-22T07:28:58.639Z,6785.00
2022-08-22T07:29:54.809Z,6731.00
2022-08-22T07:30:54.729Z,6717.00
2022-08-22T07:31:54.699Z,6752.00
2022-08-22T07:32:54.627Z,6780.00
2022-08-22T07:33:54.548Z,6889.00
2022-08-22T07:34:54.502Z,7079.00
2022-08-22T07:35:54.435Z,7157.00
2022-08-22T07:36:54.383Z,7037.00
2022-08-22T07:37:55.553Z,7053.00
2022-08-22T07:38:54.248Z,6936.00
2022-08-22T07:39:54.212Z,6916.00
2022-08-22T07:40:54.128Z,6894.00
2022-08-22T07:41:54.072Z,6897.00
2022-08-22T07:42:53.995Z,6951.00
2022-08-22T07:43:53.970Z,6970.00
2022-08-22T07:44:53.894Z,6961.00
2022-08-22T07:45:53.821Z,6994.00
2022-08-22T07:46:53.765Z,7166.00
2022-08-22T07:47:53.762Z,7256.00
2022-08-22T07:49:08.685Z,7501.00
2022-08-22T07:49:53.849Z,7617.00
2022-08-22T07:50:53.521Z,7697.00
2022-08-22T07:51:53.450Z,7571.00
2022-08-22T07:52:53.419Z,7667.00
2022-08-22T07:53:53.350Z,7529.00
2022-08-22T07:54:53.254Z,7582.00
2022-08-22T07:55:53.975Z,7682.00
2022-08-22T07:56:53.142Z,7658.00
2022-08-22T07:57:53.127Z,7872.00
2022-08-22T07:58:53.023Z,7882.00
2022-08-22T07:59:52.953Z,7759.00
2022-08-22T08:00:52.890Z,7658.00
2022-08-22T08:01:52.890Z,7718.00
2022-08-22T08:02:52.814Z,7540.00
2022-08-22T08:03:52.710Z,7699.00
2022-08-22T08:04:52.663Z,6001.00
2022-08-22T08:05:52.590Z,7289.00
2022-08-22T08:06:52.530Z,6838.00
2022-08-22T08:07:52.487Z,7020.00
2022-08-22T08:08:52.435Z,6853.00
2022-08-22T08:09:52.348Z,6727.00
2022-08-22T08:10:52.296Z,6575.00
2022-08-22T08:11:52.228Z,6528.00
2022-08-22T08:12:54.211Z,6440.00
2022-08-22T08:13:53.343Z,6510.00
2022-08-22T08:14:52.031Z,6507.00
2022-08-22T08:15:52.214Z,6249.00
2022-08-22T08:16:52.584Z,6339.00
2022-08-22T08:17:51.846Z,6329.00
2022-08-22T08:18:51.801Z,6313.00
2022-08-22T08:19:51.881Z,6364.00
2022-08-22T08:20:51.692Z,6355.00
2022-08-22T08:21:51.603Z,6350.00
2022-08-22T08:22:51.552Z,6359.00
2022-08-22T08:23:51.506Z,6381.00
2022-08-22T08:24:51.420Z,6414.00
2022-08-22T08:25:53.836Z,6437.00
2022-08-22T08:26:51.346Z,6470.00
2022-08-22T08:27:51.413Z,6415.00
2022-08-22T08:28:51.182Z,6487.00
2022-08-22T08:29:51.194Z,6470.00
2022-08-22T08:30:51.079Z,6485.00
2022-08-22T08:31:51.878Z,6496.00
2022-08-22T08:32:50.976Z,6513.00
2022-08-22T08:33:50.953Z,6529.00
2022-08-22T08:34:50.832Z,6531.00
2022-08-22T08:36:02.390Z,6571.00
2022-08-22T08:36:50.714Z,6576.00
2022-08-22T08:37:50.646Z,6650.00
2022-08-22T08:38:50.589Z,6726.00
2022-08-22T08:39:50.602Z,6743.00
2022-08-22T08:40:50.485Z,6774.00
2022-08-22T08:41:50.402Z,6799.00
2022-08-22T08:42:50.322Z,6715.00
2022-08-22T08:43:50.340Z,6680.00
2022-08-22T08:44:50.258Z,6664.00
2022-08-22T08:45:50.143Z,6665.00
2022-08-22T08:46:55.196Z,6693.00
2022-08-22T08:47:50.050Z,6679.00
2022-08-22T08:48:49.975Z,6715.00
2022-08-22T08:49:52.246Z,6752.00
2022-08-22T08:50:49.853Z,6810.00
2022-08-22T08:51:49.821Z,6902.00
2022-08-22T08:52:52.857Z,4738.00
2022-08-22T08:53:49.938Z,3913.00
2022-08-22T08:54:49.924Z,14979.00
2022-08-22T08:55:50.964Z,36878.00
2022-08-22T08:56:49.492Z,24862.00
2022-08-22T08:57:49.431Z,11690.00
2022-08-22T08:58:49.394Z,7602.00
2022-08-22T08:59:49.311Z,6852.00
2022-08-22T09:00:49.342Z,6565.00
2022-08-22T09:01:50.203Z,6375.00
2022-08-22T09:02:49.129Z,6253.00
2022-08-22T09:03:49.067Z,6219.00
2022-08-22T09:04:49.185Z,6176.00
2022-08-22T09:05:48.945Z,6188.00
2022-08-22T09:06:52.746Z,6220.00
2022-08-22T09:07:48.849Z,6413.00
2022-08-22T09:08:53.881Z,6811.00
2022-08-22T09:40:16.149Z,7117.00
2022-08-22T09:40:30.145Z,7008.00
2022-08-22T09:41:30.071Z,5796.00
2022-08-22T09:42:30.026Z,5812.00
2022-08-22T09:43:29.994Z,5388.00
2022-08-22T09:44:29.895Z,3178.00
2022-08-22T09:45:32.887Z,9530.00
2022-08-22T09:46:32.387Z,77641.00
2022-08-22T09:47:31.321Z,77542.00
2022-08-22T09:48:29.665Z,77543.00
2022-08-22T09:49:29.581Z,72843.00
2022-08-22T09:50:29.656Z,69866.00
2022-08-22T09:51:31.437Z,40377.00
2022-08-22T09:52:33.944Z,77583.00
2022-08-22T09:53:29.371Z,70720.00
2022-08-22T09:54:31.190Z,27390.00
2022-08-22T09:55:35.280Z,10518.00
2022-08-22T09:56:29.177Z,7195.00
2022-08-22T09:57:29.147Z,6583.00
2022-08-22T09:58:29.071Z,6365.00
2022-08-22T09:59:29.043Z,6221.00
2022-08-22T10:00:28.917Z,6094.00
2022-08-22T10:01:32.788Z,6057.00
2022-08-22T10:02:28.813Z,6073.00
2022-08-22T10:03:28.766Z,6129.00
2022-08-22T10:04:28.677Z,6215.00
2022-08-22T10:05:41.042Z,6330.00
2022-08-22T10:06:28.593Z,2331.00
2022-08-22T10:07:28.513Z,5429.00
2022-08-22T10:08:28.484Z,26098.00
2022-08-22T10:09:31.392Z,79204.00
2022-08-22T10:10:28.329Z,77716.00
2022-08-22T10:11:28.734Z,76253.00
2022-08-22T10:12:30.547Z,76844.00
2022-08-22T10:13:28.140Z,78364.00
2022-08-22T10:14:28.091Z,79278.00
2022-08-22T10:15:28.146Z,79854.00
2022-08-22T10:16:27.957Z,78643.00
2022-08-22T10:17:27.943Z,73350.00
2022-08-22T10:18:28.606Z,65466.00
2022-08-22T10:19:27.796Z,20369.00
2022-08-22T10:20:27.852Z,8673.00
2022-08-22T10:21:27.678Z,6925.00
2022-08-22T10:22:30.300Z,6372.00
2022-08-22T10:23:27.564Z,6130.00
2022-08-22T10:24:27.494Z,5928.00
2022-08-22T10:25:28.445Z,5793.00
2022-08-22T10:26:27.450Z,5685.00
2022-08-22T10:27:30.377Z,5587.00
2022-08-22T10:28:28.594Z,5524.00
2022-08-22T10:29:27.192Z,5431.00
2022-08-22T10:30:27.623Z,5338.00
2022-08-22T10:31:27.081Z,5266.00
2022-08-22T10:32:27.231Z,5206.00
2022-08-22T10:33:29.054Z,5153.00
2022-08-22T10:34:26.893Z,5118.00
2022-08-22T10:35:26.848Z,5100.00
2022-08-22T10:36:26.798Z,5075.00
2022-08-22T10:37:26.702Z,5069.00
2022-08-22T10:38:27.639Z,5078.00
2022-08-22T10:39:26.690Z,5047.00
2022-08-22T10:40:26.709Z,5038.00
2022-08-22T10:41:26.482Z,5068.00
2022-08-22T10:42:27.988Z,5124.00
2022-08-22T10:43:28.743Z,5035.00
2022-08-22T10:44:27.156Z,4788.00
2022-08-22T10:45:35.770Z,4676.00
2022-08-22T10:46:26.288Z,4698.00
2022-08-22T10:47:26.133Z,4678.00
2022-08-22T10:48:26.075Z,4634.00
2022-08-22T10:49:28.402Z,4577.00
2022-08-22T10:50:31.208Z,4500.00
2022-08-22T10:51:28.646Z,4426.00
2022-08-22T10:52:25.830Z,4367.00
2022-08-22T10:53:28.929Z,4323.00
2022-08-22T10:54:25.682Z,4336.00
2022-08-22T10:55:25.624Z,4270.00
2022-08-22T10:56:27.358Z,4193.00
2022-08-22T10:57:25.527Z,4218.00
2022-08-22T10:58:25.469Z,4240.00
2022-08-22T10:59:25.414Z,4199.00
2022-08-22T11:00:25.629Z,4149.00
2022-08-22T11:01:38.314Z,4095.00
2022-08-22T11:02:25.213Z,4033.00
2022-08-22T11:03:25.929Z,3944.00
2022-08-22T11:04:28.045Z,3866.00
2022-08-22T11:05:25.033Z,3840.00
2022-08-22T11:06:24.980Z,3865.00
2022-08-22T11:07:24.932Z,3762.00
2022-08-22T11:08:25.532Z,3644.00
2022-08-22T11:09:26.024Z,3564.00
2022-08-22T11:10:24.727Z,3477.00
2022-08-22T11:11:24.663Z,3406.00
2022-08-22T11:12:28.231Z,3372.00
2022-08-22T11:13:24.557Z,3316.00
2022-08-22T11:14:24.487Z,3205.00
2022-08-22T11:15:34.751Z,3125.00
2022-08-22T11:16:24.350Z,3037.00
2022-08-22T11:17:31.124Z,2980.00
2022-08-22T11:18:24.242Z,2923.00
2022-08-22T11:19:24.175Z,2859.00
2022-08-22T11:20:24.137Z,2838.00
2022-08-22T11:21:24.093Z,2780.00
2022-08-22T11:22:24.062Z,2769.00
2022-08-22T11:23:24.019Z,2756.00
2022-08-22T11:24:30.081Z,2704.00
2022-08-22T11:25:36.009Z,2637.00
2022-08-22T11:26:33.698Z,2635.00
2022-08-22T11:27:30.676Z,2572.00
2022-08-22T11:28:23.642Z,2560.00
2022-08-22T11:29:23.565Z,2452.00
2022-08-22T11:30:23.486Z,2443.00
2022-08-22T11:31:23.428Z,2428.00
2022-08-22T11:32:23.359Z,2386.00
2022-08-22T11:33:32.538Z,2425.00
2022-08-22T11:34:25.641Z,2414.00
2022-08-22T11:35:25.059Z,2558.00
2022-08-22T11:36:26.198Z,2507.00
2022-08-22T11:37:23.748Z,2437.00
2022-08-22T11:38:24.265Z,2377.00
2022-08-22T11:39:24.188Z,2358.00
2022-08-22T11:40:22.915Z,2112.00
2022-08-22T11:41:22.827Z,1902.00
2022-08-22T11:42:22.766Z,1896.00
2022-08-22T11:43:22.730Z,2033.00
2022-08-22T11:44:22.666Z,2024.00
2022-08-22T11:45:23.366Z,1992.00
2022-08-22T11:46:22.502Z,2019.00
2022-08-22T11:47:24.818Z,1972.00
2022-08-22T11:48:22.388Z,1947.00
2022-08-22T11:49:25.592Z,1969.00
2022-08-22T11:50:22.256Z,2052.00
2022-08-22T11:51:24.704Z,2013.00
2022-08-22T11:52:22.156Z,1995.00
2022-08-22T11:53:22.658Z,2105.00
2022-08-22T11:54:22.014Z,2197.00
2022-08-22T11:55:21.960Z,1976.00
2022-08-22T11:56:21.899Z,1573.00
2022-08-22T11:57:22.611Z,1565.00
2022-08-22T11:58:21.775Z,1669.00
2022-08-22T11:59:22.554Z,1827.00
2022-08-22T12:00:21.641Z,775.00
2022-08-22T12:01:21.590Z,2475.00
2022-08-22T12:02:21.557Z,7653.00
2022-08-22T12:03:23.270Z,16438.00
2022-08-22T12:04:21.408Z,1532.00
2022-08-22T12:05:26.222Z,1375.00
2022-08-22T12:06:21.298Z,1318.00
2022-08-22T12:07:21.212Z,1345.00
2022-08-22T12:08:21.519Z,1399.00
2022-08-22T12:09:21.119Z,1296.00
2022-08-22T12:10:21.043Z,676.00
2022-08-22T12:11:20.982Z,2017.00
2022-08-22T12:12:20.922Z,12424.00
2022-08-22T12:13:20.858Z,15176.00
2022-08-22T12:14:20.783Z,9600.00
2022-08-22T12:15:21.323Z,5181.00
2022-08-22T12:16:20.671Z,1100.00
2022-08-22T12:17:41.567Z,9722.00
2022-08-22T12:18:21.543Z,3156.00
2022-08-22T12:19:23.036Z,7150.00
2022-08-22T12:20:20.453Z,2854.00
2022-08-22T12:21:21.557Z,7243.00
2022-08-22T12:22:20.299Z,3992.00
2022-08-22T12:23:20.280Z,4026.00
2022-08-22T12:24:21.032Z,747.00
2022-08-22T12:25:20.105Z,3964.00
2022-08-22T12:26:22.154Z,1183.00
2022-08-22T12:27:29.238Z,7184.00
2022-08-22T12:28:20.376Z,13292.00
2022-08-22T12:29:19.905Z,4668.00
2022-08-22T12:30:19.816Z,650.00
2022-08-22T12:31:19.769Z,4241.00
2022-08-22T12:32:26.280Z,3322.00
2022-08-22T12:33:23.098Z,1748.00
2022-08-22T12:34:19.567Z,1846.00
2022-08-22T12:35:19.502Z,1523.00
2022-08-22T12:36:19.450Z,1356.00
2022-08-22T12:37:19.372Z,3046.00
2022-08-22T12:38:28.040Z,2310.00
2022-08-22T12:39:20.469Z,2034.00
2022-08-22T12:40:19.305Z,1785.00
2022-08-22T12:41:28.037Z,922.00
2022-08-22T12:42:19.104Z,1288.00
2022-08-22T12:43:18.999Z,10099.00
2022-08-22T12:44:18.954Z,12355.00
2022-08-22T12:45:19.172Z,6007.00
2022-08-22T12:46:19.008Z,4623.00
2022-08-22T12:47:18.825Z,3743.00
2022-08-22T12:48:18.706Z,2343.00
2022-08-22T12:49:18.647Z,2069.00
2022-08-22T12:50:18.598Z,2106.00
2022-08-22T12:51:20.185Z,1322.00
2022-08-22T12:52:18.585Z,2146.00
2022-08-22T12:53:20.296Z,1714.00
2022-08-22T12:54:18.336Z,1643.00
2022-08-22T12:55:18.342Z,1619.00
2022-08-22T12:56:18.241Z,1618.00